createdAt,value
2023-03-29T05:03:07.058Z,500.00
2023-03-29T05:04:08.521Z,500.00
2023-03-29T05:05:07.188Z,500.00
2023-03-29T05:06:07.529Z,500.00
2023-03-29T05:07:07.248Z,500.00
2023-03-29T05:08:08.328Z,500.00
2023-03-29T05:09:08.320Z,400.00
2023-03-29T05:10:08.356Z,400.00
2023-03-29T05:11:08.358Z,400.00
2023-03-29T05:12:08.381Z,400.00
2023-03-29T05:13:08.471Z,400.00
2023-03-29T05:14:08.490Z,400.00
2023-03-29T05:17:07.672Z,400.00
2023-03-29T05:18:07.777Z,400.00
2023-03-29T05:19:07.803Z,400.00
2023-03-29T05:20:08.844Z,400.00
2023-03-29T05:21:08.895Z,400.00
2023-03-29T05:22:08.927Z,400.00
2023-03-29T05:23:08.960Z,433.00
2023-03-29T05:24:09.011Z,474.00
2023-03-29T05:27:08.183Z,500.00
2023-03-29T05:28:08.191Z,500.00
2023-03-29T05:29:09.211Z,504.00
2023-03-29T05:30:09.282Z,500.00
2023-03-29T05:31:09.368Z,501.00
2023-03-29T05:32:09.448Z,504.00
2023-03-29T05:33:09.407Z,500.00
2023-03-29T05:34:09.435Z,501.00
2023-03-29T05:35:09.483Z,505.00
2023-03-29T05:36:09.553Z,502.00
2023-03-29T05:39:08.623Z,501.00
2023-03-29T05:40:09.680Z,504.00
2023-03-29T05:41:09.706Z,505.00
2023-03-29T05:42:09.754Z,504.00
2023-03-29T05:46:08.975Z,500.00
2023-03-29T05:47:09.945Z,503.00
2023-03-29T05:48:08.997Z,504.00
2023-03-29T05:49:10.038Z,501.00
2023-03-29T05:50:10.061Z,504.00
2023-03-29T05:51:10.129Z,500.00
2023-03-29T05:53:09.182Z,503.00
2023-03-29T05:54:10.229Z,503.00
2023-03-29T05:55:10.269Z,503.00
2023-03-29T05:56:10.292Z,499.00
2023-03-29T05:57:10.620Z,504.00
2023-03-29T05:58:10.361Z,503.00
2023-03-29T05:59:10.389Z,509.00
2023-03-29T06:00:10.416Z,505.00
2023-03-29T06:02:09.585Z,504.00
2023-03-29T06:03:19.962Z,500.00
2023-03-29T06:04:10.607Z,500.00
2023-03-29T06:08:09.477Z,489.00
2023-03-29T06:09:09.520Z,504.00
2023-03-29T06:10:10.471Z,504.00
2023-03-29T06:11:10.572Z,503.00
2023-03-29T06:12:10.473Z,509.00
2023-03-29T06:16:09.466Z,504.00
2023-03-29T06:17:10.475Z,507.00
2023-03-29T06:18:10.568Z,514.00
2023-03-29T06:21:09.516Z,514.00
2023-03-29T06:22:09.439Z,510.00
2023-03-29T06:23:10.503Z,507.00
2023-03-29T06:24:10.469Z,520.00
2023-03-29T06:25:10.493Z,513.00
2023-03-29T06:26:10.543Z,514.00
2023-03-29T06:27:10.561Z,512.00
2023-03-29T06:28:10.561Z,511.00
2023-03-29T06:29:10.573Z,515.00
2023-03-29T06:30:10.599Z,514.00
2023-03-29T06:32:09.603Z,516.00
2023-03-29T06:33:09.709Z,517.00
2023-03-29T06:34:10.629Z,519.00
2023-03-29T06:38:09.653Z,527.00
2023-03-29T06:39:10.687Z,528.00
2023-03-29T06:40:10.682Z,525.00
2023-03-29T06:41:10.688Z,531.00
2023-03-29T06:43:09.678Z,532.00
2023-03-29T06:44:10.709Z,547.00
2023-03-29T06:46:09.735Z,540.00
2023-03-29T06:47:10.696Z,540.00
2023-03-29T06:48:10.782Z,541.00
2023-03-29T06:50:09.689Z,544.00
2023-03-29T06:51:10.678Z,547.00
2023-03-29T06:52:10.064Z,547.00
2023-03-29T06:53:10.671Z,557.00
2023-03-29T06:54:09.675Z,568.00
2023-03-29T06:55:10.697Z,569.00
2023-03-29T07:01:09.679Z,564.00
2023-03-29T07:02:10.773Z,569.00
2023-03-29T07:05:09.682Z,570.00
2023-03-29T07:06:09.687Z,573.00
2023-03-29T07:07:10.676Z,569.00
2023-03-29T07:08:10.684Z,574.00
2023-03-29T07:12:09.677Z,575.00
2023-03-29T07:13:10.666Z,579.00
2023-03-29T07:14:10.673Z,576.00
2023-03-29T07:15:10.659Z,585.00
2023-03-29T07:16:10.739Z,586.00
2023-03-29T07:19:09.702Z,592.00
2023-03-29T07:20:09.668Z,598.00
2023-03-29T07:21:10.734Z,592.00
2023-03-29T07:22:10.637Z,594.00
2023-03-29T07:25:09.689Z,608.00
2023-03-29T07:26:10.640Z,613.00
2023-03-29T07:27:10.685Z,625.00
2023-03-29T07:28:10.713Z,618.00
2023-03-29T07:29:10.658Z,622.00
2023-03-29T07:30:11.152Z,623.00
2023-03-29T07:33:09.776Z,633.00
2023-03-29T07:34:10.684Z,642.00
2023-03-29T07:35:10.720Z,635.00
2023-03-29T07:36:10.779Z,636.00
2023-03-29T07:37:09.697Z,642.00
2023-03-29T07:38:10.701Z,644.00
2023-03-29T07:39:10.721Z,640.00
2023-03-29T07:40:10.740Z,652.00
2023-03-29T07:41:10.780Z,656.00
2023-03-29T07:42:10.809Z,656.00
2023-03-29T07:43:10.823Z,659.00
2023-03-29T07:44:09.801Z,657.00
2023-03-29T07:45:10.794Z,666.00
2023-03-29T07:47:10.075Z,691.00
2023-03-29T07:49:09.783Z,692.00
2023-03-29T07:50:10.789Z,704.00
2023-03-29T07:51:10.845Z,693.00
2023-03-29T07:52:11.084Z,693.00
2023-03-29T07:53:10.860Z,723.00
2023-03-29T07:56:09.835Z,727.00
2023-03-29T07:57:10.921Z,725.00
2023-03-29T07:58:10.855Z,739.00
2023-03-29T07:59:10.941Z,731.00
2023-03-29T08:00:11.002Z,753.00
2023-03-29T08:01:13.491Z,755.00
2023-03-29T08:02:10.886Z,756.00
2023-03-29T08:03:09.926Z,759.00
2023-03-29T08:04:10.239Z,768.00
2023-03-29T08:05:10.012Z,788.00
2023-03-29T08:06:10.994Z,816.00
2023-03-29T08:07:11.020Z,824.00
2023-03-29T08:08:11.025Z,847.00
2023-03-29T08:09:11.052Z,834.00
2023-03-29T08:10:11.126Z,827.00
2023-03-29T08:11:11.176Z,828.00
2023-03-29T08:12:11.254Z,834.00
2023-03-29T08:13:11.310Z,870.00
2023-03-29T08:14:11.367Z,849.00
2023-03-29T08:15:11.462Z,883.00
2023-03-29T08:16:11.491Z,856.00
2023-03-29T08:17:11.614Z,869.00
2023-03-29T08:18:11.647Z,868.00
2023-03-29T08:19:11.678Z,881.00
2023-03-29T08:20:11.736Z,872.00
2023-03-29T08:21:11.778Z,882.00
2023-03-29T08:22:11.886Z,837.00
2023-03-29T08:23:11.903Z,696.00
2023-03-29T08:24:11.959Z,627.00
2023-03-29T08:25:12.107Z,586.00
2023-03-29T08:27:11.033Z,584.00
2023-03-29T08:28:12.102Z,554.00
2023-03-29T08:29:12.099Z,567.00
2023-03-29T08:30:11.090Z,558.00
2023-03-29T08:31:11.166Z,581.00
2023-03-29T08:32:11.161Z,544.00
2023-03-29T08:33:12.315Z,599.00
2023-03-29T08:34:11.294Z,589.00
2023-03-29T08:35:12.355Z,555.00
2023-03-29T08:36:12.462Z,550.00
2023-03-29T08:37:12.467Z,559.00
2023-03-29T08:38:12.526Z,582.00
2023-03-29T08:39:12.593Z,552.00
2023-03-29T08:40:12.654Z,559.00
2023-03-29T08:41:11.687Z,508.00
2023-03-29T08:42:13.125Z,501.00
2023-03-29T08:44:11.730Z,550.00
2023-03-29T08:46:11.900Z,560.00
2023-03-29T08:47:17.858Z,562.00
2023-03-29T08:48:12.778Z,546.00
2023-03-29T08:51:11.751Z,474.00
2023-03-29T08:52:11.745Z,480.00
2023-03-29T08:53:12.742Z,508.00
2023-03-29T08:56:11.728Z,556.00
2023-03-29T08:58:12.108Z,614.00
2023-03-29T09:01:11.842Z,654.00
2023-03-29T09:02:12.704Z,642.00
2023-03-29T09:03:12.744Z,646.00
2023-03-29T09:05:11.657Z,659.00
2023-03-29T09:08:11.626Z,756.00
2023-03-29T09:09:11.639Z,746.00
2023-03-29T09:14:11.601Z,823.00
2023-03-29T09:15:11.594Z,826.00
2023-03-29T09:16:12.615Z,803.00
2023-03-29T09:17:11.578Z,809.00
2023-03-29T09:18:12.700Z,814.00
2023-03-29T09:22:11.523Z,961.00
2023-03-29T09:23:12.533Z,989.00
2023-03-29T09:25:11.512Z,937.00
2023-03-29T09:26:12.516Z,978.00
2023-03-29T09:28:11.532Z,980.00
2023-03-29T09:29:12.525Z,991.00
2023-03-29T09:30:12.583Z,1003.00
2023-03-29T09:31:12.715Z,960.00
2023-03-29T09:32:12.682Z,971.00
2023-03-29T09:33:12.795Z,1015.00
2023-03-29T09:34:14.461Z,1100.00
2023-03-29T09:35:12.810Z,1135.00
2023-03-29T09:38:11.765Z,1073.00
2023-03-29T09:39:11.762Z,1083.00
2023-03-29T09:42:11.724Z,1145.00
2023-03-29T09:43:12.720Z,1112.00
2023-03-29T09:44:24.204Z,1095.00
2023-03-29T09:45:12.709Z,1096.00
2023-03-29T09:46:12.732Z,1071.00
2023-03-29T09:50:22.991Z,1043.00
2023-03-29T09:51:12.731Z,1044.00
2023-03-29T09:52:12.654Z,1045.00
2023-03-29T09:55:11.650Z,1042.00
2023-03-29T09:58:11.645Z,1008.00
2023-03-29T09:59:12.605Z,1000.00
2023-03-29T10:00:12.609Z,992.00
2023-03-29T10:01:12.719Z,981.00
2023-03-29T10:02:12.722Z,983.00
2023-03-29T10:03:11.791Z,978.00
2023-03-29T10:04:12.916Z,972.00
2023-03-29T10:10:12.210Z,952.00
2023-03-29T10:11:12.252Z,936.00
2023-03-29T10:12:13.315Z,938.00
2023-03-29T10:13:13.390Z,934.00
2023-03-29T10:15:23.088Z,928.00
2023-03-29T10:16:13.525Z,928.00
2023-03-29T10:20:12.444Z,921.00
2023-03-29T10:22:12.449Z,917.00
2023-03-29T10:23:13.451Z,904.00
2023-03-29T10:24:13.443Z,908.00
2023-03-29T10:25:13.424Z,909.00
2023-03-29T10:27:12.455Z,899.00
2023-03-29T10:28:12.493Z,885.00
2023-03-29T10:29:13.514Z,904.00
2023-03-29T10:30:13.575Z,889.00
2023-03-29T10:31:15.021Z,883.00
2023-03-29T10:33:12.644Z,887.00
2023-03-29T10:35:12.580Z,881.00
2023-03-29T10:36:13.641Z,889.00
2023-03-29T10:40:12.531Z,873.00
2023-03-29T10:41:13.552Z,880.00
2023-03-29T10:42:13.528Z,875.00
2023-03-29T10:45:12.502Z,873.00
2023-03-29T10:46:13.572Z,873.00
2023-03-29T10:47:13.502Z,875.00
2023-03-29T10:48:13.491Z,879.00
2023-03-29T10:50:12.478Z,870.00
2023-03-29T10:51:13.464Z,868.00
2023-03-29T10:54:12.442Z,856.00
2023-03-29T10:55:12.462Z,858.00
2023-03-29T10:56:13.461Z,863.00
2023-03-29T10:57:13.475Z,873.00
2023-03-29T11:00:12.415Z,863.00
2023-03-29T11:01:13.465Z,856.00
2023-03-29T11:02:13.556Z,863.00
2023-03-29T11:07:12.692Z,862.00
2023-03-29T11:08:13.745Z,850.00
2023-03-29T11:09:13.780Z,854.00
2023-03-29T11:10:13.849Z,848.00
2023-03-29T11:11:13.927Z,876.00
2023-03-29T11:12:16.219Z,859.00
2023-03-29T11:13:13.950Z,861.00
2023-03-29T11:14:13.984Z,860.00
2023-03-29T11:16:13.006Z,873.00
2023-03-29T11:19:12.920Z,848.00
2023-03-29T11:20:12.993Z,851.00
2023-03-29T11:21:13.909Z,842.00
2023-03-29T11:24:12.901Z,841.00
2023-03-29T11:25:13.873Z,844.00
2023-03-29T11:26:12.871Z,851.00
2023-03-29T11:27:12.905Z,851.00
2023-03-29T11:32:12.834Z,848.00
2023-03-29T11:33:13.821Z,847.00
2023-03-29T11:34:13.835Z,839.00
2023-03-29T11:36:12.860Z,826.00
2023-03-29T11:38:12.807Z,849.00
2023-03-29T11:42:13.029Z,840.00
2023-03-29T11:43:14.107Z,856.00
2023-03-29T11:44:14.157Z,857.00
2023-03-29T11:45:13.164Z,859.00
2023-03-29T11:49:13.364Z,828.00
2023-03-29T11:50:14.399Z,837.00
2023-03-29T11:51:14.464Z,842.00
2023-03-29T11:52:14.527Z,838.00
2023-03-29T11:53:14.573Z,829.00
2023-03-29T11:54:14.660Z,835.00
2023-03-29T11:55:14.752Z,837.00
2023-03-29T11:56:14.757Z,822.00
2023-03-29T11:57:14.857Z,835.00
2023-03-29T12:00:14.002Z,832.00
2023-03-29T12:01:15.140Z,831.00
2023-03-29T12:02:14.148Z,836.00
2023-03-29T12:03:14.317Z,833.00
2023-03-29T12:08:14.477Z,823.00
2023-03-29T12:09:16.819Z,812.00
2023-03-29T12:10:15.618Z,817.00
2023-03-29T12:11:15.674Z,819.00
2023-03-29T12:12:15.736Z,811.00
2023-03-29T12:13:15.781Z,811.00
2023-03-29T12:14:15.864Z,807.00
2023-03-29T12:15:15.898Z,812.00
2023-03-29T12:16:16.034Z,807.00
2023-03-29T12:17:16.017Z,797.00
2023-03-29T12:18:16.061Z,803.00
2023-03-29T12:19:16.135Z,809.00
2023-03-29T12:20:16.187Z,800.00
2023-03-29T12:21:16.239Z,808.00
2023-03-29T12:22:16.298Z,810.00
2023-03-29T12:23:16.388Z,803.00
2023-03-29T12:24:16.420Z,797.00
2023-03-29T12:25:17.366Z,794.00
2023-03-29T12:26:16.679Z,787.00
2023-03-29T12:31:15.981Z,767.00
2023-03-29T12:32:17.038Z,781.00
2023-03-29T12:33:17.142Z,792.00
2023-03-29T12:34:16.185Z,761.00
2023-03-29T12:35:16.219Z,770.00
2023-03-29T12:36:17.331Z,760.00
2023-03-29T12:37:17.334Z,778.00
2023-03-29T12:38:17.413Z,775.00
2023-03-29T12:39:17.490Z,780.00
2023-03-29T12:40:17.524Z,773.00
2023-03-29T12:41:17.583Z,775.00
2023-03-29T12:42:17.663Z,795.00
2023-03-29T12:43:17.729Z,912.00
2023-03-29T12:44:17.775Z,884.00
2023-03-29T12:45:17.815Z,979.00
2023-03-29T12:46:17.934Z,1063.00
2023-03-29T12:47:17.941Z,1890.00
2023-03-29T12:48:18.012Z,2476.00
2023-03-29T12:49:20.513Z,2764.00
2023-03-29T12:50:17.069Z,3033.00
2023-03-29T12:51:18.047Z,2961.00
2023-03-29T12:54:17.044Z,3108.00
2023-03-29T12:55:18.045Z,3202.00
2023-03-29T12:58:17.015Z,3171.00
2023-03-29T12:59:18.015Z,3134.00
2023-03-29T13:02:17.070Z,3158.00
2023-03-29T13:03:18.013Z,3305.00
2023-03-29T13:06:16.954Z,3220.00
2023-03-29T13:07:17.953Z,3181.00
2023-03-29T13:10:16.927Z,3161.00
2023-03-29T13:11:17.915Z,3145.00
2023-03-29T13:12:17.926Z,3137.00
2023-03-29T13:13:17.944Z,3120.00
2023-03-29T13:14:18.014Z,3140.00
2023-03-29T13:15:18.074Z,3129.00
2023-03-29T13:16:18.175Z,3132.00
2023-03-29T13:17:19.160Z,3135.00
2023-03-29T13:18:18.288Z,3115.00
2023-03-29T13:19:18.310Z,3104.00
2023-03-29T13:20:18.397Z,3076.00
2023-03-29T13:21:18.441Z,3065.00
2023-03-29T13:23:17.998Z,3113.00
2023-03-29T13:24:18.637Z,3110.00
2023-03-29T13:25:17.701Z,3099.00
2023-03-29T13:26:18.762Z,3118.00
2023-03-29T13:27:18.805Z,3085.00
2023-03-29T13:28:18.879Z,3053.00
2023-03-29T13:33:18.196Z,2990.00
2023-03-29T13:34:19.268Z,3001.00
2023-03-29T13:35:19.320Z,3048.00
2023-03-29T13:36:18.434Z,3024.00
2023-03-29T13:37:18.449Z,2978.00
2023-03-29T13:38:19.494Z,2955.00
2023-03-29T13:39:19.563Z,2933.00
2023-03-29T13:40:19.608Z,2911.00
2023-03-29T13:45:18.856Z,2863.00
2023-03-29T13:46:19.979Z,2845.00
2023-03-29T13:47:19.980Z,2837.00
2023-03-29T13:48:20.101Z,2832.00
2023-03-29T13:49:20.123Z,2806.00
2023-03-29T13:50:20.248Z,2827.00
2023-03-29T13:53:19.361Z,2872.00
2023-03-29T13:54:20.439Z,2850.00
2023-03-29T13:55:20.484Z,2861.00
2023-03-29T13:56:20.561Z,2858.00
2023-03-29T13:57:20.658Z,2843.00
2023-03-29T13:58:20.672Z,2813.00
2023-03-29T13:59:20.745Z,2794.00
2023-03-29T14:00:21.214Z,2767.00
2023-03-29T14:01:20.894Z,2749.00
2023-03-29T14:02:20.975Z,2724.00
2023-03-29T14:03:20.994Z,2726.00
2023-03-29T14:08:20.269Z,2614.00
2023-03-29T14:09:21.320Z,2593.00
2023-03-29T14:11:20.448Z,2565.00
2023-03-29T14:12:21.494Z,2542.00
2023-03-29T14:13:21.543Z,2533.00
2023-03-29T14:14:21.588Z,2506.00
2023-03-29T14:15:21.633Z,2485.00
2023-03-29T14:16:20.737Z,2485.00
2023-03-29T14:17:21.721Z,2459.00
2023-03-29T14:18:21.739Z,2454.00
2023-03-29T14:19:21.764Z,2413.00
2023-03-29T14:20:21.762Z,2394.00
2023-03-29T14:21:21.811Z,2390.00
2023-03-29T14:22:21.826Z,2356.00
2023-03-29T14:24:20.821Z,2334.00
2023-03-29T14:25:20.843Z,2321.00
2023-03-29T14:26:21.852Z,2315.00
2023-03-29T14:27:21.893Z,2271.00
2023-03-29T14:28:21.898Z,2255.00
2023-03-29T14:29:24.373Z,2244.00
2023-03-29T14:30:21.895Z,2244.00
2023-03-29T14:31:21.919Z,2232.00
2023-03-29T14:36:20.905Z,2153.00
2023-03-29T14:37:21.862Z,2127.00
2023-03-29T14:39:20.845Z,2096.00
2023-03-29T14:40:21.839Z,2090.00
2023-03-29T14:46:20.868Z,2018.00
2023-03-29T14:51:20.753Z,1949.00
2023-03-29T14:52:21.737Z,1929.00
2023-03-29T14:53:21.741Z,1927.00
2023-03-29T14:54:20.783Z,1918.00
2023-03-29T14:55:21.738Z,1914.00
2023-03-29T15:00:20.727Z,1854.00
2023-03-29T15:01:21.721Z,1842.00
2023-03-29T15:02:21.829Z,1836.00
2023-03-29T15:03:20.742Z,1838.00
2023-03-29T15:04:21.679Z,1817.00
2023-03-29T15:10:20.677Z,1745.00
2023-03-29T15:11:21.625Z,1735.00
2023-03-29T15:12:20.612Z,1731.00
2023-03-29T15:13:21.604Z,1715.00
2023-03-29T15:15:20.599Z,1582.00
2023-03-29T15:16:21.598Z,1603.00
2023-03-29T15:21:20.574Z,1566.00
2023-03-29T15:22:21.560Z,1565.00
2023-03-29T15:25:20.518Z,1532.00
2023-03-29T15:26:21.572Z,1519.00
